sensor_id;sensor_type;location;lat;lon;timestamp;P1;durP1;ratioP1;P2;durP2;ratioP2
29452;SDS011;16424;50.956;5.320;2023-04-08T00:01:43;15.68;;;6.28;;
29452;SDS011;16424;50.956;5.320;2023-04-08T00:04:08;11.80;;;5.68;;
29452;SDS011;16424;50.956;5.320;2023-04-08T00:06:34;27.15;;;6.13;;
29452;SDS011;16424;50.956;5.320;2023-04-08T00:09:01;11.95;;;6.50;;
29452;SDS011;16424;50.956;5.320;2023-04-08T00:11:27;16.67;;;5.93;;
29452;SDS011;16424;50.956;5.320;2023-04-08T00:13:53;14.55;;;6.50;;
29452;SDS011;16424;50.956;5.320;2023-04-08T00:16:18;14.73;;;5.68;;
29452;SDS011;16424;50.956;5.320;2023-04-08T00:18:44;16.33;;;6.07;;
29452;SDS011;16424;50.956;5.320;2023-04-08T00:21:10;15.52;;;5.63;;
29452;SDS011;16424;50.956;5.320;2023-04-08T00:23:35;21.45;;;6.22;;
29452;SDS011;16424;50.956;5.320;2023-04-08T00:26:01;17.60;;;6.35;;
29452;SDS011;16424;50.956;5.320;2023-04-08T00:28:27;20.08;;;7.18;;
29452;SDS011;16424;50.956;5.320;2023-04-08T00:30:52;16.42;;;5.13;;
29452;SDS011;16424;50.956;5.320;2023-04-08T00:33:18;18.35;;;5.63;;
29452;SDS011;16424;50.956;5.320;2023-04-08T00:35:43;21.92;;;6.97;;
29452;SDS011;16424;50.956;5.320;2023-04-08T00:38:10;21.20;;;5.97;;
29452;SDS011;16424;50.956;5.320;2023-04-08T00:40:36;21.83;;;5.63;;
29452;SDS011;16424;50.956;5.320;2023-04-08T00:43:01;14.02;;;6.38;;
29452;SDS011;16424;50.956;5.320;2023-04-08T00:45:27;25.90;;;7.40;;
29452;SDS011;16424;50.956;5.320;2023-04-08T00:47:53;20.13;;;6.70;;
29452;SDS011;16424;50.956;5.320;2023-04-08T00:50:18;23.70;;;6.68;;
29452;SDS011;16424;50.956;5.320;2023-04-08T00:52:44;19.33;;;7.38;;
29452;SDS011;16424;50.956;5.320;2023-04-08T00:55:10;17.20;;;6.88;;
29452;SDS011;16424;50.956;5.320;2023-04-08T00:57:36;17.75;;;6.78;;
29452;SDS011;16424;50.956;5.320;2023-04-08T01:00:02;16.20;;;6.50;;
29452;SDS011;16424;50.956;5.320;2023-04-08T01:05:30;16.13;;;6.60;;
29452;SDS011;16424;50.956;5.320;2023-04-08T01:08:03;14.77;;;6.70;;
29452;SDS011;16424;50.956;5.320;2023-04-08T01:10:32;20.73;;;7.15;;
29452;SDS011;16424;50.956;5.320;2023-04-08T01:13:05;17.42;;;7.00;;
29452;SDS011;16424;50.956;5.320;2023-04-08T01:15:36;15.68;;;6.38;;
29452;SDS011;16424;50.956;5.320;2023-04-08T01:18:07;18.52;;;7.20;;
29452;SDS011;16424;50.956;5.320;2023-04-08T01:20:34;24.75;;;6.43;;
29452;SDS011;16424;50.956;5.320;2023-04-08T01:25:34;23.13;;;6.78;;
29452;SDS011;16424;50.956;5.320;2023-04-08T01:28:06;17.27;;;6.90;;
29452;SDS011;16424;50.956;5.320;2023-04-08T01:30:39;14.95;;;6.03;;
29452;SDS011;16424;50.956;5.320;2023-04-08T01:33:06;27.55;;;8.25;;
29452;SDS011;16424;50.956;5.320;2023-04-08T01:35:36;11.23;;;6.65;;
29452;SDS011;16424;50.956;5.320;2023-04-08T01:38:06;16.42;;;7.07;;
29452;SDS011;16424;50.956;5.320;2023-04-08T01:40:33;12.25;;;6.63;;
29452;SDS011;16424;50.956;5.320;2023-04-08T01:43:01;11.48;;;6.28;;
29452;SDS011;16424;50.956;5.320;2023-04-08T01:45:28;24.15;;;6.13;;
29452;SDS011;16424;50.956;5.320;2023-04-08T01:47:55;17.10;;;6.72;;
29452;SDS011;16424;50.956;5.320;2023-04-08T01:50:22;14.35;;;5.78;;
29452;SDS011;16424;50.956;5.320;2023-04-08T01:52:50;17.63;;;7.55;;
29452;SDS011;16424;50.956;5.320;2023-04-08T01:55:17;19.85;;;7.13;;
29452;SDS011;16424;50.956;5.320;2023-04-08T01:57:46;20.55;;;6.63;;
29452;SDS011;16424;50.956;5.320;2023-04-08T02:00:15;18.52;;;6.53;;
29452;SDS011;16424;50.956;5.320;2023-04-08T02:02:45;16.33;;;5.40;;
29452;SDS011;16424;50.956;5.320;2023-04-08T02:05:12;19.38;;;6.32;;
29452;SDS011;16424;50.956;5.320;2023-04-08T02:07:38;25.50;;;6.82;;
29452;SDS011;16424;50.956;5.320;2023-04-08T02:10:04;14.88;;;6.10;;
29452;SDS011;16424;50.956;5.320;2023-04-08T02:12:30;20.13;;;6.45;;
29452;SDS011;16424;50.956;5.320;2023-04-08T02:14:57;13.43;;;6.78;;
29452;SDS011;16424;50.956;5.320;2023-04-08T02:17:24;21.23;;;7.38;;
29452;SDS011;16424;50.956;5.320;2023-04-08T02:20:22;14.15;;;6.68;;
29452;SDS011;16424;50.956;5.320;2023-04-08T02:25:31;17.88;;;8.15;;
29452;SDS011;16424;50.956;5.320;2023-04-08T02:28:00;18.08;;;7.03;;
29452;SDS011;16424;50.956;5.320;2023-04-08T02:30:30;19.48;;;6.93;;
29452;SDS011;16424;50.956;5.320;2023-04-08T02:32:56;28.52;;;7.28;;
29452;SDS011;16424;50.956;5.320;2023-04-08T02:35:22;20.40;;;7.78;;
29452;SDS011;16424;50.956;5.320;2023-04-08T02:37:48;14.68;;;6.53;;
29452;SDS011;16424;50.956;5.320;2023-04-08T02:40:31;18.52;;;7.53;;
29452;SDS011;16424;50.956;5.320;2023-04-08T02:42:58;11.52;;;6.32;;
29452;SDS011;16424;50.956;5.320;2023-04-08T02:45:25;16.30;;;8.23;;
29452;SDS011;16424;50.956;5.320;2023-04-08T02:47:53;22.92;;;7.45;;
29452;SDS011;16424;50.956;5.320;2023-04-08T02:50:19;24.88;;;6.97;;
29452;SDS011;16424;50.956;5.320;2023-04-08T02:52:45;19.48;;;7.80;;
29452;SDS011;16424;50.956;5.320;2023-04-08T02:55:11;18.27;;;7.53;;
29452;SDS011;16424;50.956;5.320;2023-04-08T02:57:37;22.98;;;7.72;;
29452;SDS011;16424;50.956;5.320;2023-04-08T03:00:05;17.30;;;7.57;;
29452;SDS011;16424;50.956;5.320;2023-04-08T03:02:31;20.67;;;6.80;;
29452;SDS011;16424;50.956;5.320;2023-04-08T03:04:57;20.98;;;8.02;;
29452;SDS011;16424;50.956;5.320;2023-04-08T03:07:23;18.23;;;8.05;;
29452;SDS011;16424;50.956;5.320;2023-04-08T03:09:49;24.75;;;7.63;;
29452;SDS011;16424;50.956;5.320;2023-04-08T03:12:15;19.42;;;8.70;;
29452;SDS011;16424;50.956;5.320;2023-04-08T03:14:41;19.10;;;7.85;;
29452;SDS011;16424;50.956;5.320;2023-04-08T03:17:06;19.75;;;7.82;;
29452;SDS011;16424;50.956;5.320;2023-04-08T03:19:32;20.35;;;8.32;;
29452;SDS011;16424;50.956;5.320;2023-04-08T03:21:57;18.80;;;8.25;;
29452;SDS011;16424;50.956;5.320;2023-04-08T03:24:23;19.42;;;8.43;;
29452;SDS011;16424;50.956;5.320;2023-04-08T03:26:49;23.13;;;8.73;;
29452;SDS011;16424;50.956;5.320;2023-04-08T03:29:15;20.88;;;9.23;;
29452;SDS011;16424;50.956;5.320;2023-04-08T03:31:40;21.50;;;9.35;;
29452;SDS011;16424;50.956;5.320;2023-04-08T03:34:06;34.92;;;11.27;;
29452;SDS011;16424;50.956;5.320;2023-04-08T03:36:31;29.38;;;10.65;;
29452;SDS011;16424;50.956;5.320;2023-04-08T03:38:57;23.05;;;9.65;;
29452;SDS011;16424;50.956;5.320;2023-04-08T03:41:23;24.63;;;9.40;;
29452;SDS011;16424;50.956;5.320;2023-04-08T03:43:48;22.40;;;9.57;;
29452;SDS011;16424;50.956;5.320;2023-04-08T03:46:14;23.30;;;10.65;;
29452;SDS011;16424;50.956;5.320;2023-04-08T03:48:40;27.60;;;10.93;;
29452;SDS011;16424;50.956;5.320;2023-04-08T03:51:06;27.55;;;11.40;;
29452;SDS011;16424;50.956;5.320;2023-04-08T03:53:31;25.75;;;10.70;;
29452;SDS011;16424;50.956;5.320;2023-04-08T03:55:57;28.80;;;10.85;;
29452;SDS011;16424;50.956;5.320;2023-04-08T03:58:23;23.77;;;11.63;;
29452;SDS011;16424;50.956;5.320;2023-04-08T04:00:49;26.02;;;11.93;;
29452;SDS011;16424;50.956;5.320;2023-04-08T04:03:14;23.42;;;11.07;;
29452;SDS011;16424;50.956;5.320;2023-04-08T04:05:40;40.88;;;14.38;;
29452;SDS011;16424;50.956;5.320;2023-04-08T04:08:06;29.65;;;12.70;;
29452;SDS011;16424;50.956;5.320;2023-04-08T04:10:33;22.52;;;11.18;;
29452;SDS011;16424;50.956;5.320;2023-04-08T04:12:59;25.95;;;10.68;;
29452;SDS011;16424;50.956;5.320;2023-04-08T04:15:25;21.90;;;10.65;;
29452;SDS011;16424;50.956;5.320;2023-04-08T04:17:50;28.10;;;11.32;;
29452;SDS011;16424;50.956;5.320;2023-04-08T04:20:16;30.05;;;10.45;;
29452;SDS011;16424;50.956;5.320;2023-04-08T04:22:42;27.35;;;11.60;;
29452;SDS011;16424;50.956;5.320;2023-04-08T04:25:08;26.73;;;11.55;;
29452;SDS011;16424;50.956;5.320;2023-04-08T04:27:35;21.73;;;11.05;;
29452;SDS011;16424;50.956;5.320;2023-04-08T04:30:03;35.35;;;11.07;;
29452;SDS011;16424;50.956;5.320;2023-04-08T04:32:29;22.83;;;9.90;;
29452;SDS011;16424;50.956;5.320;2023-04-08T04:34:55;24.80;;;10.30;;
29452;SDS011;16424;50.956;5.320;2023-04-08T04:37:20;39.00;;;13.80;;
29452;SDS011;16424;50.956;5.320;2023-04-08T04:39:46;21.45;;;10.73;;
29452;SDS011;16424;50.956;5.320;2023-04-08T04:42:12;29.42;;;11.15;;
29452;SDS011;16424;50.956;5.320;2023-04-08T04:44:37;27.50;;;11.20;;
29452;SDS011;16424;50.956;5.320;2023-04-08T04:47:03;27.45;;;10.80;;
29452;SDS011;16424;50.956;5.320;2023-04-08T04:49:29;30.80;;;10.40;;
29452;SDS011;16424;50.956;5.320;2023-04-08T04:51:55;27.65;;;12.32;;
29452;SDS011;16424;50.956;5.320;2023-04-08T04:54:20;28.40;;;10.32;;
29452;SDS011;16424;50.956;5.320;2023-04-08T04:56:46;24.85;;;11.82;;
29452;SDS011;16424;50.956;5.320;2023-04-08T04:59:11;28.67;;;12.13;;
29452;SDS011;16424;50.956;5.320;2023-04-08T05:01:37;27.15;;;11.30;;
29452;SDS011;16424;50.956;5.320;2023-04-08T05:04:04;27.80;;;11.02;;
29452;SDS011;16424;50.956;5.320;2023-04-08T05:06:31;28.08;;;12.07;;
29452;SDS011;16424;50.956;5.320;2023-04-08T05:08:57;24.45;;;11.23;;
29452;SDS011;16424;50.956;5.320;2023-04-08T05:11:23;22.83;;;10.95;;
29452;SDS011;16424;50.956;5.320;2023-04-08T05:13:48;28.30;;;11.57;;
29452;SDS011;16424;50.956;5.320;2023-04-08T05:16:14;28.60;;;11.63;;
29452;SDS011;16424;50.956;5.320;2023-04-08T05:18:40;41.35;;;19.77;;
29452;SDS011;16424;50.956;5.320;2023-04-08T05:21:06;39.55;;;17.55;;
29452;SDS011;16424;50.956;5.320;2023-04-08T05:23:33;54.17;;;19.95;;
29452;SDS011;16424;50.956;5.320;2023-04-08T05:25:59;49.15;;;21.33;;
29452;SDS011;16424;50.956;5.320;2023-04-08T05:28:25;46.72;;;19.48;;
29452;SDS011;16424;50.956;5.320;2023-04-08T05:30:51;40.20;;;18.95;;
29452;SDS011;16424;50.956;5.320;2023-04-08T05:33:17;44.42;;;20.13;;
29452;SDS011;16424;50.956;5.320;2023-04-08T05:35:43;52.03;;;21.25;;
29452;SDS011;16424;50.956;5.320;2023-04-08T05:38:09;42.28;;;19.98;;
29452;SDS011;16424;50.956;5.320;2023-04-08T05:40:35;47.30;;;20.45;;
29452;SDS011;16424;50.956;5.320;2023-04-08T05:43:01;53.70;;;22.38;;
29452;SDS011;16424;50.956;5.320;2023-04-08T05:45:27;43.70;;;19.55;;
29452;SDS011;16424;50.956;5.320;2023-04-08T05:47:53;49.40;;;20.88;;
29452;SDS011;16424;50.956;5.320;2023-04-08T05:50:19;57.80;;;22.48;;
29452;SDS011;16424;50.956;5.320;2023-04-08T05:52:44;46.05;;;21.30;;
29452;SDS011;16424;50.956;5.320;2023-04-08T05:55:11;50.67;;;22.45;;
29452;SDS011;16424;50.956;5.320;2023-04-08T05:57:37;44.65;;;21.02;;
29452;SDS011;16424;50.956;5.320;2023-04-08T06:00:04;48.13;;;19.40;;
29452;SDS011;16424;50.956;5.320;2023-04-08T06:02:31;40.65;;;18.33;;
29452;SDS011;16424;50.956;5.320;2023-04-08T06:04:56;39.55;;;17.92;;
29452;SDS011;16424;50.956;5.320;2023-04-08T06:07:22;43.53;;;17.10;;
29452;SDS011;16424;50.956;5.320;2023-04-08T06:09:47;36.75;;;16.23;;
29452;SDS011;16424;50.956;5.320;2023-04-08T06:12:13;35.97;;;16.02;;
29452;SDS011;16424;50.956;5.320;2023-04-08T06:14:38;35.83;;;17.13;;
29452;SDS011;16424;50.956;5.320;2023-04-08T06:17:06;42.83;;;17.02;;
29452;SDS011;16424;50.956;5.320;2023-04-08T06:19:31;43.42;;;17.30;;
29452;SDS011;16424;50.956;5.320;2023-04-08T06:21:57;44.65;;;16.83;;
29452;SDS011;16424;50.956;5.320;2023-04-08T06:24:26;42.03;;;18.52;;
29452;SDS011;16424;50.956;5.320;2023-04-08T06:26:53;39.72;;;19.17;;
29452;SDS011;16424;50.956;5.320;2023-04-08T06:29:22;39.17;;;17.35;;
29452;SDS011;16424;50.956;5.320;2023-04-08T06:31:48;37.00;;;18.02;;
29452;SDS011;16424;50.956;5.320;2023-04-08T06:34:14;56.60;;;21.35;;
29452;SDS011;16424;50.956;5.320;2023-04-08T06:36:40;46.72;;;21.33;;
29452;SDS011;16424;50.956;5.320;2023-04-08T06:39:06;47.85;;;21.15;;
29452;SDS011;16424;50.956;5.320;2023-04-08T06:41:32;49.78;;;22.60;;
29452;SDS011;16424;50.956;5.320;2023-04-08T06:43:58;58.08;;;25.02;;
29452;SDS011;16424;50.956;5.320;2023-04-08T06:46:23;47.53;;;22.55;;
29452;SDS011;16424;50.956;5.320;2023-04-08T06:48:49;54.35;;;24.23;;
29452;SDS011;16424;50.956;5.320;2023-04-08T06:51:15;50.35;;;23.20;;
29452;SDS011;16424;50.956;5.320;2023-04-08T06:53:41;46.63;;;24.70;;
29452;SDS011;16424;50.956;5.320;2023-04-08T06:56:06;56.33;;;24.20;;
29452;SDS011;16424;50.956;5.320;2023-04-08T06:58:32;50.92;;;25.40;;
29452;SDS011;16424;50.956;5.320;2023-04-08T07:00:58;54.42;;;27.30;;
29452;SDS011;16424;50.956;5.320;2023-04-08T07:03:25;52.20;;;26.55;;
29452;SDS011;16424;50.956;5.320;2023-04-08T07:05:51;58.50;;;28.02;;
29452;SDS011;16424;50.956;5.320;2023-04-08T07:08:17;56.70;;;27.15;;
29452;SDS011;16424;50.956;5.320;2023-04-08T07:10:42;61.83;;;27.05;;
29452;SDS011;16424;50.956;5.320;2023-04-08T07:13:08;61.47;;;28.83;;
29452;SDS011;16424;50.956;5.320;2023-04-08T07:15:34;54.38;;;25.13;;
29452;SDS011;16424;50.956;5.320;2023-04-08T07:18:00;53.72;;;26.63;;
29452;SDS011;16424;50.956;5.320;2023-04-08T07:20:26;70.80;;;28.02;;
29452;SDS011;16424;50.956;5.320;2023-04-08T07:22:52;54.53;;;26.30;;
29452;SDS011;16424;50.956;5.320;2023-04-08T07:25:18;93.88;;;29.13;;
29452;SDS011;16424;50.956;5.320;2023-04-08T07:27:44;84.95;;;27.15;;
29452;SDS011;16424;50.956;5.320;2023-04-08T07:30:09;77.82;;;27.80;;
29452;SDS011;16424;50.956;5.320;2023-04-08T07:32:35;45.30;;;24.90;;
29452;SDS011;16424;50.956;5.320;2023-04-08T07:35:01;55.53;;;27.45;;
29452;SDS011;16424;50.956;5.320;2023-04-08T07:37:27;50.47;;;24.42;;
29452;SDS011;16424;50.956;5.320;2023-04-08T07:39:53;46.28;;;23.85;;
29452;SDS011;16424;50.956;5.320;2023-04-08T07:42:19;49.00;;;25.52;;
29452;SDS011;16424;50.956;5.320;2023-04-08T07:44:44;43.97;;;23.40;;
29452;SDS011;16424;50.956;5.320;2023-04-08T07:47:10;42.67;;;23.02;;
29452;SDS011;16424;50.956;5.320;2023-04-08T07:49:36;44.22;;;23.13;;
29452;SDS011;16424;50.956;5.320;2023-04-08T07:52:03;40.00;;;20.85;;
29452;SDS011;16424;50.956;5.320;2023-04-08T07:54:30;41.55;;;22.83;;
29452;SDS011;16424;50.956;5.320;2023-04-08T07:56:57;49.50;;;23.63;;
29452;SDS011;16424;50.956;5.320;2023-04-08T07:59:23;41.95;;;22.70;;
29452;SDS011;16424;50.956;5.320;2023-04-08T08:01:49;37.33;;;22.92;;
29452;SDS011;16424;50.956;5.320;2023-04-08T08:04:15;46.03;;;23.98;;
29452;SDS011;16424;50.956;5.320;2023-04-08T08:06:41;38.42;;;20.67;;
29452;SDS011;16424;50.956;5.320;2023-04-08T08:09:06;39.28;;;22.33;;
29452;SDS011;16424;50.956;5.320;2023-04-08T08:11:32;39.22;;;21.42;;
29452;SDS011;16424;50.956;5.320;2023-04-08T08:13:58;40.55;;;22.02;;
29452;SDS011;16424;50.956;5.320;2023-04-08T08:16:26;44.05;;;21.98;;
29452;SDS011;16424;50.956;5.320;2023-04-08T08:18:52;40.10;;;24.13;;
29452;SDS011;16424;50.956;5.320;2023-04-08T08:21:18;36.55;;;20.27;;
29452;SDS011;16424;50.956;5.320;2023-04-08T08:23:43;32.28;;;19.05;;
29452;SDS011;16424;50.956;5.320;2023-04-08T08:26:09;29.45;;;17.13;;
29452;SDS011;16424;50.956;5.320;2023-04-08T08:28:36;28.27;;;18.77;;
29452;SDS011;16424;50.956;5.320;2023-04-08T08:31:02;31.05;;;17.75;;
29452;SDS011;16424;50.956;5.320;2023-04-08T08:33:29;31.33;;;18.13;;
29452;SDS011;16424;50.956;5.320;2023-04-08T08:35:55;28.08;;;16.95;;
29452;SDS011;16424;50.956;5.320;2023-04-08T08:38:22;29.42;;;17.38;;
29452;SDS011;16424;50.956;5.320;2023-04-08T08:40:52;25.52;;;15.93;;
29452;SDS011;16424;50.956;5.320;2023-04-08T08:43:22;25.25;;;13.88;;
29452;SDS011;16424;50.956;5.320;2023-04-08T08:45:51;22.98;;;14.02;;
29452;SDS011;16424;50.956;5.320;2023-04-08T08:48:17;26.17;;;15.65;;
29452;SDS011;16424;50.956;5.320;2023-04-08T08:50:42;21.73;;;13.30;;
29452;SDS011;16424;50.956;5.320;2023-04-08T08:53:08;19.35;;;13.07;;
29452;SDS011;16424;50.956;5.320;2023-04-08T08:55:34;17.65;;;12.27;;
29452;SDS011;16424;50.956;5.320;2023-04-08T08:58:00;18.38;;;11.52;;
29452;SDS011;16424;50.956;5.320;2023-04-08T09:00:36;18.52;;;11.68;;
29452;SDS011;16424;50.956;5.320;2023-04-08T09:03:24;18.95;;;11.98;;
29452;SDS011;16424;50.956;5.320;2023-04-08T09:05:59;18.88;;;12.10;;
29452;SDS011;16424;50.956;5.320;2023-04-08T09:11:13;12.90;;;10.20;;
29452;SDS011;16424;50.956;5.320;2023-04-08T09:13:43;19.95;;;11.82;;
29452;SDS011;16424;50.956;5.320;2023-04-08T09:16:13;15.45;;;10.73;;
29452;SDS011;16424;50.956;5.320;2023-04-08T09:18:42;19.13;;;11.43;;
29452;SDS011;16424;50.956;5.320;2023-04-08T09:21:09;17.13;;;10.65;;
29452;SDS011;16424;50.956;5.320;2023-04-08T09:26:08;15.95;;;10.07;;
29452;SDS011;16424;50.956;5.320;2023-04-08T09:28:34;14.80;;;9.65;;
29452;SDS011;16424;50.956;5.320;2023-04-08T09:31:00;16.60;;;10.05;;
29452;SDS011;16424;50.956;5.320;2023-04-08T09:33:33;16.10;;;9.30;;
29452;SDS011;16424;50.956;5.320;2023-04-08T09:35:58;15.65;;;9.15;;
29452;SDS011;16424;50.956;5.320;2023-04-08T09:38:24;14.68;;;10.43;;
29452;SDS011;16424;50.956;5.320;2023-04-08T09:40:50;23.88;;;13.88;;
29452;SDS011;16424;50.956;5.320;2023-04-08T09:43:17;26.23;;;15.45;;
29452;SDS011;16424;50.956;5.320;2023-04-08T09:45:46;23.42;;;14.65;;
29452;SDS011;16424;50.956;5.320;2023-04-08T09:48:16;23.52;;;14.30;;
29452;SDS011;16424;50.956;5.320;2023-04-08T09:50:48;27.25;;;15.98;;
29452;SDS011;16424;50.956;5.320;2023-04-08T09:53:19;24.15;;;13.57;;
29452;SDS011;16424;50.956;5.320;2023-04-08T09:55:58;24.42;;;13.23;;
29452;SDS011;16424;50.956;5.320;2023-04-08T09:58:32;27.25;;;14.70;;
29452;SDS011;16424;50.956;5.320;2023-04-08T10:01:02;23.85;;;13.48;;
29452;SDS011;16424;50.956;5.320;2023-04-08T10:03:43;23.35;;;13.95;;
29452;SDS011;16424;50.956;5.320;2023-04-08T10:06:12;25.40;;;14.95;;
29452;SDS011;16424;50.956;5.320;2023-04-08T10:08:39;26.08;;;14.98;;
29452;SDS011;16424;50.956;5.320;2023-04-08T10:11:05;23.67;;;14.40;;
29452;SDS011;16424;50.956;5.320;2023-04-08T10:13:32;32.03;;;15.85;;
29452;SDS011;16424;50.956;5.320;2023-04-08T10:18:42;33.88;;;16.38;;
29452;SDS011;16424;50.956;5.320;2023-04-08T10:23:57;32.38;;;17.63;;
29452;SDS011;16424;50.956;5.320;2023-04-08T10:26:29;37.53;;;18.42;;
29452;SDS011;16424;50.956;5.320;2023-04-08T10:31:47;31.60;;;16.92;;
29452;SDS011;16424;50.956;5.320;2023-04-08T10:34:16;28.33;;;15.80;;
29452;SDS011;16424;50.956;5.320;2023-04-08T10:36:43;33.22;;;17.08;;
29452;SDS011;16424;50.956;5.320;2023-04-08T10:39:09;28.52;;;17.23;;
29452;SDS011;16424;50.956;5.320;2023-04-08T10:41:47;34.28;;;19.02;;
29452;SDS011;16424;50.956;5.320;2023-04-08T10:44:23;40.33;;;19.85;;
29452;SDS011;16424;50.956;5.320;2023-04-08T10:46:53;37.80;;;19.95;;
29452;SDS011;16424;50.956;5.320;2023-04-08T10:49:19;30.42;;;19.13;;
29452;SDS011;16424;50.956;5.320;2023-04-08T10:51:46;35.60;;;19.15;;
29452;SDS011;16424;50.956;5.320;2023-04-08T10:54:13;35.30;;;18.67;;
29452;SDS011;16424;50.956;5.320;2023-04-08T10:59:14;28.17;;;16.33;;
29452;SDS011;16424;50.956;5.320;2023-04-08T11:01:42;25.50;;;15.35;;
29452;SDS011;16424;50.956;5.320;2023-04-08T11:04:12;20.92;;;14.60;;
29452;SDS011;16424;50.956;5.320;2023-04-08T11:06:40;23.30;;;13.35;;
29452;SDS011;16424;50.956;5.320;2023-04-08T11:09:07;25.60;;;14.27;;
29452;SDS011;16424;50.956;5.320;2023-04-08T11:11:33;24.38;;;15.18;;
29452;SDS011;16424;50.956;5.320;2023-04-08T11:13:59;28.80;;;15.57;;
29452;SDS011;16424;50.956;5.320;2023-04-08T11:16:26;29.77;;;16.73;;
29452;SDS011;16424;50.956;5.320;2023-04-08T11:18:53;22.48;;;14.93;;
29452;SDS011;16424;50.956;5.320;2023-04-08T11:21:19;24.70;;;13.95;;
29452;SDS011;16424;50.956;5.320;2023-04-08T11:23:50;25.77;;;14.38;;
29452;SDS011;16424;50.956;5.320;2023-04-08T11:26:17;24.17;;;14.32;;
29452;SDS011;16424;50.956;5.320;2023-04-08T11:28:43;24.15;;;14.80;;
29452;SDS011;16424;50.956;5.320;2023-04-08T11:31:11;22.13;;;13.88;;
29452;SDS011;16424;50.956;5.320;2023-04-08T11:33:37;20.45;;;14.27;;
29452;SDS011;16424;50.956;5.320;2023-04-08T11:36:09;23.23;;;13.73;;
29452;SDS011;16424;50.956;5.320;2023-04-08T11:38:37;22.95;;;13.23;;
29452;SDS011;16424;50.956;5.320;2023-04-08T11:41:06;27.58;;;14.80;;
29452;SDS011;16424;50.956;5.320;2023-04-08T11:43:32;24.83;;;15.00;;
29452;SDS011;16424;50.956;5.320;2023-04-08T11:46:00;25.70;;;15.40;;
29452;SDS011;16424;50.956;5.320;2023-04-08T11:48:36;25.45;;;14.57;;
29452;SDS011;16424;50.956;5.320;2023-04-08T11:51:05;25.55;;;14.00;;
29452;SDS011;16424;50.956;5.320;2023-04-08T11:53:36;21.75;;;13.82;;
29452;SDS011;16424;50.956;5.320;2023-04-08T11:56:15;20.23;;;13.43;;
29452;SDS011;16424;50.956;5.320;2023-04-08T11:58:41;20.40;;;12.85;;
29452;SDS011;16424;50.956;5.320;2023-04-08T12:01:07;21.52;;;13.18;;
29452;SDS011;16424;50.956;5.320;2023-04-08T12:03:32;21.08;;;13.18;;
29452;SDS011;16424;50.956;5.320;2023-04-08T12:05:58;21.90;;;13.48;;
29452;SDS011;16424;50.956;5.320;2023-04-08T12:08:24;20.70;;;13.00;;
29452;SDS011;16424;50.956;5.320;2023-04-08T12:10:50;20.02;;;12.48;;
29452;SDS011;16424;50.956;5.320;2023-04-08T12:13:16;17.25;;;12.73;;
29452;SDS011;16424;50.956;5.320;2023-04-08T12:15:42;23.35;;;14.95;;
29452;SDS011;16424;50.956;5.320;2023-04-08T12:18:08;20.90;;;13.38;;
29452;SDS011;16424;50.956;5.320;2023-04-08T12:20:34;19.52;;;12.80;;
29452;SDS011;16424;50.956;5.320;2023-04-08T12:22:59;18.30;;;12.80;;
29452;SDS011;16424;50.956;5.320;2023-04-08T12:25:25;21.52;;;13.45;;
29452;SDS011;16424;50.956;5.320;2023-04-08T12:27:51;18.05;;;12.25;;
29452;SDS011;16424;50.956;5.320;2023-04-08T12:30:17;20.48;;;12.45;;
29452;SDS011;16424;50.956;5.320;2023-04-08T12:32:43;20.45;;;12.38;;
29452;SDS011;16424;50.956;5.320;2023-04-08T12:35:10;18.70;;;12.23;;
29452;SDS011;16424;50.956;5.320;2023-04-08T12:37:39;17.25;;;11.77;;
29452;SDS011;16424;50.956;5.320;2023-04-08T12:40:05;15.98;;;11.88;;
29452;SDS011;16424;50.956;5.320;2023-04-08T12:42:31;18.08;;;11.40;;
29452;SDS011;16424;50.956;5.320;2023-04-08T12:44:57;21.65;;;12.07;;
29452;SDS011;16424;50.956;5.320;2023-04-08T12:47:22;17.50;;;11.65;;
29452;SDS011;16424;50.956;5.320;2023-04-08T12:49:48;15.48;;;11.27;;
29452;SDS011;16424;50.956;5.320;2023-04-08T12:52:14;21.90;;;13.13;;
29452;SDS011;16424;50.956;5.320;2023-04-08T12:54:39;15.40;;;11.38;;
29452;SDS011;16424;50.956;5.320;2023-04-08T12:57:05;21.67;;;12.70;;
29452;SDS011;16424;50.956;5.320;2023-04-08T12:59:31;15.52;;;11.55;;
29452;SDS011;16424;50.956;5.320;2023-04-08T13:01:57;19.35;;;12.25;;
29452;SDS011;16424;50.956;5.320;2023-04-08T13:04:23;19.55;;;12.75;;
29452;SDS011;16424;50.956;5.320;2023-04-08T13:06:49;27.23;;;15.00;;
29452;SDS011;16424;50.956;5.320;2023-04-08T13:09:15;20.25;;;13.18;;
29452;SDS011;16424;50.956;5.320;2023-04-08T13:11:41;18.08;;;12.55;;
29452;SDS011;16424;50.956;5.320;2023-04-08T13:14:06;16.83;;;12.05;;
29452;SDS011;16424;50.956;5.320;2023-04-08T13:16:32;17.80;;;11.80;;
29452;SDS011;16424;50.956;5.320;2023-04-08T13:18:58;17.50;;;11.88;;
29452;SDS011;16424;50.956;5.320;2023-04-08T13:21:23;16.42;;;12.13;;
29452;SDS011;16424;50.956;5.320;2023-04-08T13:23:50;16.77;;;11.43;;
29452;SDS011;16424;50.956;5.320;2023-04-08T13:26:16;18.77;;;12.35;;
29452;SDS011;16424;50.956;5.320;2023-04-08T13:28:41;18.58;;;11.88;;
29452;SDS011;16424;50.956;5.320;2023-04-08T13:31:07;17.10;;;10.93;;
29452;SDS011;16424;50.956;5.320;2023-04-08T13:33:33;19.40;;;11.60;;
29452;SDS011;16424;50.956;5.320;2023-04-08T13:35:58;16.10;;;10.27;;
29452;SDS011;16424;50.956;5.320;2023-04-08T13:38:24;15.30;;;8.82;;
29452;SDS011;16424;50.956;5.320;2023-04-08T13:40:50;14.35;;;9.95;;
29452;SDS011;16424;50.956;5.320;2023-04-08T13:43:15;16.17;;;10.68;;
29452;SDS011;16424;50.956;5.320;2023-04-08T13:45:41;15.20;;;10.38;;
29452;SDS011;16424;50.956;5.320;2023-04-08T13:48:07;16.92;;;11.55;;
29452;SDS011;16424;50.956;5.320;2023-04-08T13:50:33;15.15;;;10.73;;
29452;SDS011;16424;50.956;5.320;2023-04-08T13:52:58;15.23;;;11.27;;
29452;SDS011;16424;50.956;5.320;2023-04-08T13:55:24;14.43;;;9.23;;
29452;SDS011;16424;50.956;5.320;2023-04-08T13:57:50;14.52;;;10.48;;
29452;SDS011;16424;50.956;5.320;2023-04-08T14:00:17;15.40;;;10.00;;
29452;SDS011;16424;50.956;5.320;2023-04-08T14:02:42;17.10;;;10.57;;
29452;SDS011;16424;50.956;5.320;2023-04-08T14:05:08;14.07;;;10.15;;
29452;SDS011;16424;50.956;5.320;2023-04-08T14:07:34;14.18;;;10.48;;
29452;SDS011;16424;50.956;5.320;2023-04-08T14:09:59;12.40;;;9.63;;
29452;SDS011;16424;50.956;5.320;2023-04-08T14:12:25;16.30;;;11.30;;
29452;SDS011;16424;50.956;5.320;2023-04-08T14:14:51;12.88;;;9.43;;
29452;SDS011;16424;50.956;5.320;2023-04-08T14:17:16;11.63;;;9.48;;
29452;SDS011;16424;50.956;5.320;2023-04-08T14:19:42;15.73;;;10.65;;
29452;SDS011;16424;50.956;5.320;2023-04-08T14:22:08;15.07;;;10.75;;
29452;SDS011;16424;50.956;5.320;2023-04-08T14:24:33;14.05;;;10.65;;
29452;SDS011;16424;50.956;5.320;2023-04-08T14:26:59;15.85;;;11.48;;
29452;SDS011;16424;50.956;5.320;2023-04-08T14:29:25;14.23;;;10.75;;
29452;SDS011;16424;50.956;5.320;2023-04-08T14:31:50;14.38;;;11.20;;
29452;SDS011;16424;50.956;5.320;2023-04-08T14:34:16;15.15;;;10.60;;
29452;SDS011;16424;50.956;5.320;2023-04-08T14:36:42;15.60;;;11.82;;
29452;SDS011;16424;50.956;5.320;2023-04-08T14:39:07;16.83;;;12.25;;
29452;SDS011;16424;50.956;5.320;2023-04-08T14:41:33;23.08;;;13.65;;
29452;SDS011;16424;50.956;5.320;2023-04-08T14:43:59;20.33;;;14.40;;
29452;SDS011;16424;50.956;5.320;2023-04-08T14:46:25;17.35;;;12.65;;
29452;SDS011;16424;50.956;5.320;2023-04-08T14:48:51;20.08;;;13.60;;